createdAt,value
2018-07-19T00:02:01.886Z,87.65
2018-07-19T00:05:06.545Z,87.54
2018-07-19T00:08:11.116Z,87.94
2018-07-19T00:11:15.696Z,88.55
2018-07-19T00:14:20.171Z,88.09
2018-07-19T00:17:24.748Z,88.46
2018-07-19T00:20:29.224Z,88.22
2018-07-19T00:23:33.966Z,88.34
2018-07-19T00:26:38.364Z,88.59
2018-07-19T00:29:42.757Z,89.14
2018-07-19T00:32:47.269Z,89.18
2018-07-19T00:35:52.088Z,89.24
2018-07-19T00:38:56.555Z,89.56
2018-07-19T00:42:00.982Z,90.34
2018-07-19T00:45:05.543Z,90.30
2018-07-19T00:48:09.788Z,91.27
2018-07-19T00:51:14.242Z,91.10
2018-07-19T00:54:18.778Z,91.20
2018-07-19T00:57:23.165Z,91.45
2018-07-19T01:00:27.631Z,91.79
2018-07-19T01:03:32.030Z,91.55
2018-07-19T01:06:36.701Z,92.23
2018-07-19T01:09:41.051Z,92.56
2018-07-19T01:12:45.444Z,92.57
2018-07-19T01:15:49.993Z,93.13
2018-07-19T01:18:54.489Z,93.20
2018-07-19T01:21:58.917Z,93.77
2018-07-19T01:25:03.657Z,93.55
2018-07-19T01:28:08.689Z,93.96
2018-07-19T01:31:13.379Z,94.49
2018-07-19T01:34:17.875Z,93.95
2018-07-19T01:37:22.360Z,93.96
2018-07-19T01:40:26.918Z,94.43
2018-07-19T01:43:31.523Z,94.50
2018-07-19T01:46:35.931Z,94.26
2018-07-19T01:49:41.816Z,93.94
2018-07-19T01:52:46.342Z,94.63
2018-07-19T01:55:50.857Z,94.86
2018-07-19T01:58:55.483Z,95.46
2018-07-19T02:01:59.919Z,95.48
2018-07-19T02:05:04.685Z,95.42
2018-07-19T02:08:09.164Z,95.14
2018-07-19T02:11:13.888Z,95.28
2018-07-19T02:14:18.516Z,94.93
2018-07-19T02:17:23.071Z,95.25
2018-07-19T02:20:27.812Z,95.17
2018-07-19T02:23:32.202Z,95.27
2018-07-19T02:26:36.640Z,95.39
2018-07-19T02:29:41.075Z,95.83
2018-07-19T02:32:47.090Z,96.23
2018-07-19T02:35:51.567Z,95.88
2018-07-19T02:38:56.051Z,95.34
2018-07-19T02:42:00.647Z,95.52
2018-07-19T02:45:05.102Z,95.85
2018-07-19T02:48:09.519Z,96.03
2018-07-19T02:51:14.243Z,95.81
2018-07-19T02:54:18.624Z,95.81
2018-07-19T02:57:23.177Z,96.30
2018-07-19T03:00:27.664Z,96.90
2018-07-19T03:03:32.140Z,97.02
2018-07-19T03:06:36.724Z,97.33
2018-07-19T03:09:41.192Z,97.11
2018-07-19T03:12:45.700Z,96.83
2018-07-19T03:15:50.328Z,97.48
2018-07-19T03:18:54.887Z,97.37
2018-07-19T03:21:59.414Z,97.23
2018-07-19T03:25:04.012Z,97.61
2018-07-19T03:28:08.492Z,98.17
2018-07-19T03:31:13.222Z,98.00
2018-07-19T03:34:17.681Z,97.92
2018-07-19T03:37:22.398Z,97.84
2018-07-19T03:40:27.183Z,97.44
2018-07-19T03:43:31.709Z,96.81
2018-07-19T03:46:36.511Z,96.28
2018-07-19T03:49:41.034Z,95.20
2018-07-19T03:52:45.634Z,94.60
2018-07-19T03:55:50.403Z,93.43
2018-07-19T03:58:55.041Z,92.61
2018-07-19T04:01:59.838Z,92.25
2018-07-19T04:05:04.360Z,91.72
2018-07-19T04:08:09.042Z,91.18
2018-07-19T04:11:13.510Z,90.96
2018-07-19T04:14:18.193Z,91.89
2018-07-19T04:17:22.995Z,92.90
2018-07-19T04:20:29.349Z,93.41
2018-07-19T04:23:34.029Z,93.40
2018-07-19T04:26:38.741Z,93.95
2018-07-19T04:29:43.347Z,94.37
2018-07-19T04:32:47.920Z,95.40
2018-07-19T04:35:52.527Z,95.48
2018-07-19T04:38:57.111Z,95.45
2018-07-19T04:42:01.844Z,94.91
2018-07-19T04:45:06.850Z,94.58
2018-07-19T04:48:11.803Z,95.42
2018-07-19T04:51:16.577Z,95.21
2018-07-19T04:54:21.173Z,95.84
2018-07-19T04:57:25.753Z,95.94
2018-07-19T05:00:30.297Z,95.55
2018-07-19T05:03:34.590Z,95.32
2018-07-19T05:06:39.157Z,95.30
2018-07-19T05:09:43.733Z,94.89
2018-07-19T05:12:48.469Z,95.64
2018-07-19T05:15:53.045Z,95.11
2018-07-19T05:19:04.548Z,94.46
2018-07-19T05:22:08.899Z,94.11
2018-07-19T05:25:13.501Z,93.89
2018-07-19T05:28:17.961Z,93.61
2018-07-19T05:31:22.488Z,93.11
2018-07-19T05:34:27.254Z,93.26
2018-07-19T05:37:32.459Z,92.91
2018-07-19T05:40:37.191Z,92.45
2018-07-19T05:43:42.029Z,92.75
2018-07-19T05:46:46.884Z,91.98
2018-07-19T05:49:51.659Z,92.16
2018-07-19T05:52:56.251Z,91.83
2018-07-19T05:56:01.276Z,91.57
2018-07-19T05:59:07.450Z,91.13
2018-07-19T06:02:12.318Z,91.23
2018-07-19T06:05:17.661Z,91.15
2018-07-19T06:08:22.289Z,90.90
2018-07-19T06:11:26.923Z,90.77
2018-07-19T06:14:32.090Z,90.26
2018-07-19T06:17:42.332Z,90.06
2018-07-19T06:20:49.664Z,90.22
2018-07-19T06:23:54.716Z,91.09
2018-07-19T06:27:06.792Z,90.01
2018-07-19T06:30:11.777Z,89.07
2018-07-19T06:33:16.830Z,89.12
2018-07-19T06:36:21.487Z,89.21
2018-07-19T06:39:27.237Z,89.37
2018-07-19T06:42:31.999Z,89.37
2018-07-19T06:45:36.497Z,87.84
2018-07-19T06:48:42.344Z,87.96
2018-07-19T06:51:46.920Z,87.33
2018-07-19T06:54:51.477Z,87.14
2018-07-19T06:57:56.105Z,86.39
2018-07-19T07:01:02.129Z,84.53
2018-07-19T07:04:09.365Z,83.95
2018-07-19T07:07:15.526Z,83.81
2018-07-19T07:10:20.444Z,82.98
2018-07-19T07:13:25.040Z,83.25
2018-07-19T07:16:30.893Z,83.11
2018-07-19T07:19:39.212Z,82.13
2018-07-19T07:22:43.668Z,80.89
2018-07-19T07:25:52.928Z,77.79
2018-07-19T07:28:57.365Z,78.66
2018-07-19T07:32:01.704Z,77.71
2018-07-19T07:35:06.816Z,78.96
2018-07-19T07:38:11.800Z,78.34
2018-07-19T07:41:16.626Z,76.30
2018-07-19T07:44:24.482Z,76.47
2018-07-19T07:47:29.233Z,75.52
2018-07-19T07:50:34.226Z,73.66
2018-07-19T07:53:38.618Z,73.69
2018-07-19T07:56:43.035Z,72.52
2018-07-19T07:59:50.868Z,71.86
2018-07-19T08:03:00.973Z,70.14
2018-07-19T08:06:05.795Z,68.18
2018-07-19T08:09:10.741Z,67.38
2018-07-19T08:12:15.375Z,66.49
2018-07-19T08:15:19.972Z,66.28
2018-07-19T08:18:24.373Z,65.37
2018-07-19T08:21:29.176Z,63.77
2018-07-19T08:24:33.698Z,62.92
2018-07-19T08:27:38.374Z,62.78
2018-07-19T08:30:44.110Z,62.78
2018-07-19T08:33:48.929Z,59.86
2018-07-19T08:36:53.699Z,60.24
2018-07-19T08:39:57.957Z,62.16
2018-07-19T08:43:02.611Z,61.74
2018-07-19T08:46:07.258Z,61.59
2018-07-19T08:49:11.607Z,59.40
2018-07-19T08:52:27.863Z,60.52
2018-07-19T08:55:32.129Z,59.84
2018-07-19T08:58:43.649Z,58.26
2018-07-19T09:01:48.004Z,58.03
2018-07-19T09:04:52.297Z,58.50
2018-07-19T09:07:56.744Z,56.57
2018-07-19T09:11:01.530Z,53.74
2018-07-19T09:14:06.231Z,53.17
2018-07-19T09:17:10.609Z,51.98
2018-07-19T09:20:15.307Z,49.84
2018-07-19T09:23:20.185Z,50.08
2018-07-19T09:26:25.754Z,49.84
2018-07-19T09:29:30.301Z,50.23
2018-07-19T09:32:34.974Z,49.61
2018-07-19T09:35:39.541Z,48.79
2018-07-19T09:38:44.437Z,48.21
2018-07-19T09:41:49.248Z,45.65
2018-07-19T09:44:55.200Z,45.85
2018-07-19T09:47:59.549Z,46.65
2018-07-19T09:51:05.062Z,44.58
2018-07-19T09:54:09.458Z,46.19
2018-07-19T09:57:16.264Z,45.29
2018-07-19T10:00:26.324Z,44.29
2018-07-19T10:03:30.709Z,44.73
2018-07-19T10:06:35.097Z,43.85
2018-07-19T10:09:39.838Z,43.41
2018-07-19T10:12:45.142Z,43.71
2018-07-19T10:15:49.855Z,43.09
2018-07-19T10:18:54.290Z,42.41
2018-07-19T10:21:59.305Z,42.36
2018-07-19T10:25:05.363Z,43.65
2018-07-19T10:28:10.314Z,41.48
2018-07-19T10:31:14.658Z,41.71
2018-07-19T10:34:19.562Z,42.56
2018-07-19T10:37:24.587Z,43.58
2018-07-19T10:40:29.916Z,44.70
2018-07-19T10:43:34.384Z,47.51
2018-07-19T10:46:38.678Z,49.47
2018-07-19T10:49:46.712Z,48.22
2018-07-19T10:52:51.253Z,48.67
2018-07-19T10:55:55.581Z,47.16
2018-07-19T10:58:59.973Z,44.49
2018-07-19T11:02:04.548Z,44.74
2018-07-19T11:05:09.252Z,44.96
2018-07-19T11:08:13.625Z,44.82
2018-07-19T11:11:18.112Z,45.86
2018-07-19T11:14:22.432Z,45.89
2018-07-19T11:17:26.729Z,44.50
2018-07-19T11:20:31.262Z,43.41
2018-07-19T11:23:35.635Z,41.28
2018-07-19T11:26:40.022Z,42.03
2018-07-19T11:29:44.353Z,41.01
2018-07-19T11:32:48.737Z,41.15
2018-07-19T11:35:53.140Z,40.01
2018-07-19T11:38:57.494Z,39.65
2018-07-19T11:42:02.130Z,37.63
2018-07-19T11:45:06.946Z,36.05
2018-07-19T11:48:11.347Z,38.08
2018-07-19T11:51:16.066Z,38.45
2018-07-19T11:54:20.485Z,38.55
2018-07-19T11:57:24.849Z,39.77
2018-07-19T12:00:29.167Z,41.47
2018-07-19T12:03:33.459Z,43.11
2018-07-19T12:06:37.805Z,41.44
2018-07-19T12:09:42.232Z,40.28
2018-07-19T12:12:46.632Z,40.62
2018-07-19T12:15:51.245Z,40.71
2018-07-19T12:18:55.399Z,41.32
2018-07-19T12:21:59.865Z,43.38
2018-07-19T12:25:04.707Z,43.42
2018-07-19T12:28:09.061Z,43.14
2018-07-19T12:31:13.376Z,41.21
2018-07-19T12:34:17.984Z,42.20
2018-07-19T12:37:22.313Z,41.86
2018-07-19T12:40:26.744Z,40.10
2018-07-19T12:43:31.072Z,40.29
2018-07-19T12:46:42.565Z,40.97
2018-07-19T12:49:46.954Z,39.68
2018-07-19T12:52:51.682Z,39.86
2018-07-19T12:55:56.205Z,39.93
2018-07-19T12:59:00.773Z,38.35
2018-07-19T13:02:05.128Z,39.13
2018-07-19T13:05:09.481Z,38.19
2018-07-19T13:08:14.028Z,38.89
2018-07-19T13:11:18.368Z,38.34
2018-07-19T13:14:24.441Z,37.59
2018-07-19T13:17:29.070Z,37.83
2018-07-19T13:20:33.437Z,38.12
2018-07-19T13:23:37.996Z,38.12
2018-07-19T13:26:42.370Z,38.72
2018-07-19T13:29:46.825Z,39.31
2018-07-19T13:32:51.313Z,38.95
2018-07-19T13:35:55.643Z,37.35
2018-07-19T13:38:59.969Z,37.80
2018-07-19T13:42:04.365Z,37.85
2018-07-19T13:45:09.538Z,37.93
2018-07-19T13:48:13.985Z,37.90
2018-07-19T13:51:18.302Z,37.56
2018-07-19T13:54:39.786Z,36.67
2018-07-19T13:57:44.065Z,36.53
2018-07-19T14:00:48.421Z,37.67
2018-07-19T14:03:52.829Z,37.41
2018-07-19T14:06:57.159Z,37.14
2018-07-19T14:10:01.439Z,38.62
2018-07-19T14:13:05.816Z,39.18
2018-07-19T14:16:10.176Z,39.45
2018-07-19T14:19:14.647Z,38.43
2018-07-19T14:22:19.096Z,37.95
2018-07-19T14:25:23.485Z,37.61
2018-07-19T14:28:27.781Z,39.30
2018-07-19T14:31:32.171Z,37.32
2018-07-19T14:34:36.591Z,36.53
2018-07-19T14:37:41.012Z,37.00
2018-07-19T14:40:45.342Z,38.59
2018-07-19T14:43:49.502Z,38.39
2018-07-19T14:46:53.839Z,37.91
2018-07-19T14:49:58.806Z,37.75
2018-07-19T14:53:03.195Z,38.61
2018-07-19T14:56:07.588Z,39.88
2018-07-19T14:59:11.844Z,39.99
2018-07-19T15:02:16.241Z,39.09
2018-07-19T15:05:20.630Z,37.89
2018-07-19T15:08:24.999Z,39.35
2018-07-19T15:11:29.239Z,38.52
2018-07-19T15:14:33.822Z,38.29
2018-07-19T15:17:38.173Z,38.15
2018-07-19T15:20:42.447Z,37.66
2018-07-19T15:23:46.761Z,36.31
2018-07-19T15:26:51.153Z,35.50
2018-07-19T15:29:55.645Z,34.57
2018-07-19T15:33:00.053Z,35.24
2018-07-19T15:36:05.466Z,33.88
2018-07-19T15:39:10.363Z,32.80
2018-07-19T15:42:14.848Z,32.43
2018-07-19T15:45:19.120Z,31.42
2018-07-19T15:48:23.548Z,31.21
2018-07-19T15:51:27.938Z,30.56
2018-07-19T15:54:32.364Z,31.25
2018-07-19T15:57:36.743Z,30.89
2018-07-19T16:00:41.108Z,31.77
2018-07-19T16:03:45.640Z,30.52
2018-07-19T16:06:50.057Z,30.32
2018-07-19T16:09:54.417Z,30.18
2018-07-19T16:12:58.754Z,30.60
2018-07-19T16:16:02.903Z,30.49
2018-07-19T16:19:07.304Z,29.22
2018-07-19T16:22:11.613Z,29.43
2018-07-19T16:25:15.956Z,28.54
2018-07-19T16:28:20.355Z,28.10
2018-07-19T16:31:24.663Z,29.05
2018-07-19T16:34:28.973Z,28.89
2018-07-19T16:37:33.334Z,28.57
2018-07-19T16:40:37.777Z,29.59
2018-07-19T16:43:42.152Z,30.74
2018-07-19T16:46:46.881Z,29.95
2018-07-19T16:49:51.370Z,30.11
2018-07-19T16:52:55.759Z,30.69
2018-07-19T16:56:00.358Z,29.26
2018-07-19T16:59:04.748Z,29.62
2018-07-19T17:02:09.303Z,30.15
2018-07-19T17:05:13.633Z,29.07
2018-07-19T17:08:17.913Z,30.85
2018-07-19T17:11:22.247Z,31.94
2018-07-19T17:14:26.551Z,31.64
2018-07-19T17:17:30.954Z,32.33
2018-07-19T17:20:35.218Z,32.51
2018-07-19T17:23:40.155Z,32.71
2018-07-19T17:26:44.593Z,35.39
2018-07-19T17:29:48.989Z,39.22
2018-07-19T17:32:53.482Z,41.34
2018-07-19T17:35:57.938Z,41.63
2018-07-19T17:39:02.347Z,42.55
2018-07-19T17:42:07.222Z,44.06
2018-07-19T17:45:11.817Z,44.18
2018-07-19T17:48:16.153Z,44.43
2018-07-19T17:51:20.557Z,45.10
2018-07-19T17:54:24.662Z,44.63
2018-07-19T17:57:29.113Z,45.66
2018-07-19T18:00:33.483Z,46.35
2018-07-19T18:03:38.086Z,47.02
2018-07-19T18:06:42.382Z,47.53
2018-07-19T18:09:46.770Z,47.78
2018-07-19T18:12:51.104Z,47.45
2018-07-19T18:15:55.427Z,48.87
2018-07-19T18:18:59.941Z,49.39
2018-07-19T18:22:04.244Z,49.31
2018-07-19T18:25:08.829Z,48.77
2018-07-19T18:28:13.229Z,49.71
2018-07-19T18:31:17.684Z,50.44
2018-07-19T18:34:22.057Z,50.87
2018-07-19T18:37:26.576Z,51.28
2018-07-19T18:40:31.043Z,51.74
2018-07-19T18:43:35.613Z,52.47
2018-07-19T18:46:40.051Z,53.74
2018-07-19T18:49:44.581Z,54.03
2018-07-19T18:52:49.098Z,54.69
2018-07-19T18:55:53.836Z,55.06
2018-07-19T18:58:58.325Z,56.33
2018-07-19T19:02:02.839Z,57.59
2018-07-19T19:05:08.206Z,56.89
2018-07-19T19:08:13.010Z,58.07
2018-07-19T19:11:18.298Z,58.67
2018-07-19T19:14:23.324Z,58.78
2018-07-19T19:17:28.271Z,59.89
2018-07-19T19:20:32.885Z,59.96
2018-07-19T19:23:37.848Z,61.23
2018-07-19T19:26:42.351Z,61.66
2018-07-19T19:29:46.731Z,62.49
2018-07-19T19:32:51.201Z,63.52
2018-07-19T19:35:55.784Z,64.15
2018-07-19T19:39:00.695Z,64.48
2018-07-19T19:42:05.328Z,64.20
2018-07-19T19:45:09.811Z,65.26
2018-07-19T19:48:14.368Z,64.63
2018-07-19T19:51:18.749Z,65.89
2018-07-19T19:54:23.227Z,65.91
2018-07-19T19:57:27.794Z,66.74
2018-07-19T20:00:32.282Z,67.62
2018-07-19T20:03:36.807Z,68.26
2018-07-19T20:06:41.428Z,68.32
2018-07-19T20:09:46.369Z,70.16
2018-07-19T20:12:53.199Z,70.43
2018-07-19T20:15:57.802Z,70.40
2018-07-19T20:19:05.640Z,71.27
2018-07-19T20:22:11.903Z,71.79
2018-07-19T20:25:16.394Z,71.91
2018-07-19T20:28:21.004Z,72.66
2018-07-19T20:31:25.651Z,73.38
2018-07-19T20:34:30.228Z,73.75
2018-07-19T20:37:34.977Z,73.65
2018-07-19T20:40:39.442Z,74.23
2018-07-19T20:43:44.188Z,74.88
2018-07-19T20:46:48.698Z,75.00
2018-07-19T20:49:53.519Z,75.95
2018-07-19T20:52:58.103Z,76.26
2018-07-19T20:56:02.464Z,76.40
2018-07-19T20:59:07.514Z,76.54
2018-07-19T21:02:11.924Z,76.75
2018-07-19T21:05:16.520Z,77.38
2018-07-19T21:08:21.385Z,77.85
2018-07-19T21:11:26.351Z,77.52
2018-07-19T21:14:31.037Z,77.90
2018-07-19T21:17:35.353Z,78.16
2018-07-19T21:20:40.177Z,78.59
2018-07-19T21:23:44.669Z,78.25
2018-07-19T21:26:49.021Z,78.34
2018-07-19T21:29:54.129Z,78.73
2018-07-19T21:32:58.535Z,78.24
2018-07-19T21:36:03.204Z,78.31
2018-07-19T21:39:10.885Z,79.09
2018-07-19T21:42:15.191Z,78.30
2018-07-19T21:45:19.625Z,77.88
2018-07-19T21:48:24.076Z,78.56
2018-07-19T21:51:28.683Z,78.49
2018-07-19T21:54:33.019Z,78.41
2018-07-19T21:57:52.164Z,78.75
2018-07-19T22:01:01.828Z,78.34
2018-07-19T22:04:06.396Z,78.56
2018-07-19T22:07:11.240Z,78.71
2018-07-19T22:10:16.281Z,78.42
2018-07-19T22:13:20.754Z,78.88
2018-07-19T22:16:25.406Z,78.25
2018-07-19T22:19:30.124Z,78.87
2018-07-19T22:22:34.767Z,78.87
2018-07-19T22:25:39.280Z,79.37
2018-07-19T22:28:43.775Z,78.79
2018-07-19T22:31:48.651Z,78.73
2018-07-19T22:34:54.157Z,78.81
2018-07-19T22:37:59.706Z,79.38
2018-07-19T22:41:04.225Z,79.34
2018-07-19T22:44:09.039Z,79.53
2018-07-19T22:47:13.678Z,79.74
2018-07-19T22:50:18.258Z,80.05
2018-07-19T22:53:22.779Z,80.64
2018-07-19T22:56:27.181Z,80.24
2018-07-19T22:59:31.636Z,80.99
2018-07-19T23:02:36.088Z,81.27
2018-07-19T23:05:40.662Z,81.40
2018-07-19T23:08:45.186Z,81.12
2018-07-19T23:11:49.714Z,81.58
2018-07-19T23:14:54.959Z,82.14
2018-07-19T23:17:59.495Z,82.12
2018-07-19T23:21:04.052Z,82.28
2018-07-19T23:24:08.533Z,82.78
2018-07-19T23:27:13.313Z,82.14
2018-07-19T23:30:18.270Z,82.97
2018-07-19T23:33:22.754Z,83.12
2018-07-19T23:36:31.973Z,83.65
2018-07-19T23:39:42.786Z,83.63
2018-07-19T23:42:52.717Z,84.16
2018-07-19T23:46:02.009Z,84.51
2018-07-19T23:49:07.190Z,85.17
2018-07-19T23:52:11.600Z,85.20
2018-07-19T23:55:16.227Z,85.78
2018-07-19T23:58:20.778Z,84.87
